Terminal Aerodrome Forecast
Issued by NWS

Home | Current Version | Previous Version | Text Only | Print | Product List | Glossary On
Versions: 1 2 3 4 5 6 7 8 9 10 11 12 13 14 15 16 17 18 19 20 21 22 23 24
000
FTUS46 KOTX 252338
TAFMWH
TAF
KMWH 252338Z 2600/2624 19010KT P6SM FEW070 BKN200
     FM260400 20006KT P6SM VCSH SCT060 OVC110
     FM261200 20006KT P6SM FEW100 SCT200
     FM261800 25015G23KT P6SM FEW070 SCT120=

USA.gov is the U.S. government's official web portal to all federal, state and local government web resources and services.